Berlin, Berlin Schonefeld Airport (EDDB)

NameBerlin Schonefeld Airport
CityBerlin
CountryGermany
ICAOEDDB
IATASXF
Altitude157 feet
CoordinatesGoogle Map
Live Air TrafficLiveATC.net
METAREDDB 230820Z AUTO 17007KT 120V220 CAVOK 22/12 Q1018 NOSIG
2024-07-23 08:20:00 Wind: South-Southeast (170°) 3.6 m/s - Visibility: > 10000 m - Weather: CAVOK - Temperature: 22 °C - Dew point: 12 °C - Humidity: 53.2% - Pressure: 1018 hPa

Sorry, no flights used the airport in this database.